createdAt,value
2019-03-18T00:00:11.017Z,99635.80
2019-03-18T00:02:44.614Z,99627.79
2019-03-18T00:05:18.081Z,99633.30
2019-03-18T00:07:51.409Z,99633.30
2019-03-18T00:18:26.798Z,99625.70
2019-03-18T00:21:00.168Z,99638.66
2019-03-18T00:23:33.529Z,99634.24
2019-03-18T00:26:06.881Z,99638.15
2019-03-18T00:28:40.324Z,99638.15
2019-03-18T00:31:13.752Z,99645.64
2019-03-18T00:33:47.174Z,99645.64
2019-03-18T00:36:20.572Z,99633.71
2019-03-18T00:38:53.940Z,99633.71
2019-03-18T00:41:27.300Z,99645.47
2019-03-18T00:44:00.652Z,99644.35
2019-03-18T00:46:34.062Z,99645.72
2019-03-18T00:49:07.494Z,99651.82
2019-03-18T00:51:40.833Z,99651.89
2019-03-18T00:54:14.208Z,99648.14
2019-03-18T00:56:47.550Z,99648.14
2019-03-18T00:59:20.919Z,99654.75
2019-03-18T01:01:54.268Z,99640.10
2019-03-18T01:04:27.637Z,99654.06
2019-03-18T01:07:00.983Z,99657.10
2019-03-18T01:09:34.421Z,99656.88
2019-03-18T01:12:07.887Z,99650.59
2019-03-18T01:14:41.249Z,99662.25
2019-03-18T01:17:14.599Z,99660.09
2019-03-18T01:19:48.305Z,99660.09
2019-03-18T01:22:21.639Z,99667.80
2019-03-18T01:24:55.022Z,99667.80
2019-03-18T01:27:28.354Z,99662.58
2019-03-18T01:30:01.791Z,99662.58
2019-03-18T01:32:35.130Z,99662.70
2019-03-18T01:35:11.849Z,99665.42
2019-03-18T01:37:45.193Z,99667.00
2019-03-18T01:40:18.647Z,99679.48
2019-03-18T01:42:51.982Z,99679.48
2019-03-18T01:45:25.353Z,99678.89
2019-03-18T01:47:58.700Z,99675.80
2019-03-18T01:50:32.074Z,99678.12
2019-03-18T01:53:05.509Z,99687.89
2019-03-18T01:55:38.951Z,99677.89
2019-03-18T01:58:12.288Z,99686.34
2019-03-18T02:00:45.660Z,99696.95
2019-03-18T02:03:19.004Z,99690.17
2019-03-18T02:05:52.371Z,99703.31
2019-03-18T02:08:25.770Z,99694.24
2019-03-18T02:10:59.158Z,99694.24
2019-03-18T02:13:32.555Z,99696.78
2019-03-18T02:16:05.988Z,99691.89
2019-03-18T02:18:39.396Z,99698.88
2019-03-18T02:21:12.870Z,99694.76
2019-03-18T02:23:46.205Z,99695.89
2019-03-18T02:26:19.572Z,99695.89
2019-03-18T02:28:52.981Z,99698.61
2019-03-18T02:31:26.359Z,99700.83
2019-03-18T02:33:59.752Z,99689.65
2019-03-18T02:36:33.122Z,99692.26
2019-03-18T02:39:06.619Z,99691.05
2019-03-18T02:41:40.073Z,99700.25
2019-03-18T02:44:13.434Z,99705.92
2019-03-18T02:46:46.893Z,99700.40
2019-03-18T02:49:20.207Z,99698.36
2019-03-18T02:51:53.614Z,99701.41
2019-03-18T02:54:26.932Z,99706.67
2019-03-18T02:57:00.310Z,99703.06
2019-03-18T02:59:33.635Z,99707.37
2019-03-18T03:02:06.979Z,99708.64
2019-03-18T03:04:40.292Z,99708.64
2019-03-18T03:07:13.824Z,99693.33
2019-03-18T03:09:47.147Z,99701.72
2019-03-18T03:12:20.537Z,99697.80
2019-03-18T03:14:53.844Z,99694.42
2019-03-18T03:17:27.274Z,99702.11
2019-03-18T03:20:02.242Z,99704.97
2019-03-18T03:22:35.576Z,99707.70
2019-03-18T03:25:09.722Z,99707.70
2019-03-18T03:27:43.062Z,99713.66
2019-03-18T03:30:16.512Z,99714.50
2019-03-18T03:32:49.856Z,99723.67
2019-03-18T03:35:23.190Z,99727.17
2019-03-18T03:37:56.487Z,99724.13
2019-03-18T03:40:29.894Z,99726.42
2019-03-18T03:43:03.204Z,99729.80
2019-03-18T03:45:36.537Z,99729.80
2019-03-18T03:48:09.923Z,99725.05
2019-03-18T03:50:43.258Z,99732.38
2019-03-18T03:53:16.663Z,99742.73
2019-03-18T03:55:49.992Z,99734.59
2019-03-18T03:58:23.342Z,99723.83
2019-03-18T04:00:56.750Z,99743.81
2019-03-18T04:03:38.422Z,99733.03
2019-03-18T04:06:05.411Z,99740.23
2019-03-18T04:08:38.801Z,99743.94
2019-03-18T04:11:12.181Z,99743.94
2019-03-18T04:13:45.485Z,99745.23
2019-03-18T04:16:18.891Z,99760.75
2019-03-18T04:18:52.209Z,99754.58
2019-03-18T04:21:25.569Z,99757.59
2019-03-18T04:23:58.856Z,99753.97
2019-03-18T04:26:32.197Z,99763.30
2019-03-18T04:29:05.528Z,99759.60
2019-03-18T04:31:38.875Z,99770.75
2019-03-18T04:34:12.184Z,99761.53
2019-03-18T04:36:45.531Z,99769.39
2019-03-18T04:39:18.845Z,99777.22
2019-03-18T04:41:52.206Z,99775.84
2019-03-18T04:44:25.536Z,99776.59
2019-03-18T04:46:58.875Z,99776.27
2019-03-18T04:49:32.175Z,99789.04
2019-03-18T04:52:05.547Z,99795.52
2019-03-18T04:54:38.875Z,99786.95
2019-03-18T04:57:12.228Z,99791.03
2019-03-18T04:59:45.560Z,99812.06
2019-03-18T05:02:18.901Z,99806.28
2019-03-18T05:04:52.210Z,99811.80
2019-03-18T05:07:25.545Z,99818.22
2019-03-18T05:09:58.942Z,99823.56
2019-03-18T05:12:32.298Z,99820.14
2019-03-18T05:15:07.739Z,99827.44
2019-03-18T05:17:41.073Z,99833.30
2019-03-18T05:20:14.406Z,99834.45
2019-03-18T05:22:47.784Z,99834.45
2019-03-18T05:25:21.178Z,99835.55
2019-03-18T05:27:54.518Z,99841.24
2019-03-18T05:30:27.876Z,99845.84
2019-03-18T05:33:01.219Z,99844.84
2019-03-18T05:35:34.526Z,99838.97
2019-03-18T05:38:07.875Z,99852.59
2019-03-18T05:40:41.234Z,99854.78
2019-03-18T05:43:14.606Z,99853.30
2019-03-18T05:45:47.992Z,99853.30
2019-03-18T05:48:21.322Z,99850.97
2019-03-18T05:50:54.633Z,99857.88
2019-03-18T05:53:28.013Z,99856.44
2019-03-18T05:56:01.333Z,99858.70
2019-03-18T05:58:34.749Z,99871.87
2019-03-18T06:01:08.068Z,99876.95
2019-03-18T06:03:41.414Z,99878.44
2019-03-18T06:06:14.828Z,99880.26
2019-03-18T06:08:48.279Z,99881.42
2019-03-18T06:11:21.598Z,99888.99
2019-03-18T06:13:56.587Z,99897.84
2019-03-18T06:16:30.166Z,99897.45
2019-03-18T06:19:03.528Z,99909.73
2019-03-18T06:21:36.956Z,99915.31
2019-03-18T06:24:10.363Z,99917.30
2019-03-18T06:26:43.713Z,99915.38
2019-03-18T06:29:17.062Z,99922.94
2019-03-18T06:31:50.383Z,99932.45
2019-03-18T06:34:23.741Z,99927.31
2019-03-18T06:36:57.071Z,99931.19
2019-03-18T06:39:30.437Z,99933.89
2019-03-18T06:42:03.762Z,99943.46
2019-03-18T06:44:37.123Z,99937.16
2019-03-18T06:47:10.459Z,99938.06
2019-03-18T06:49:43.808Z,99940.19
2019-03-18T06:52:17.137Z,99941.88
2019-03-18T06:54:50.492Z,99942.86
2019-03-18T06:57:23.817Z,99941.23
2019-03-18T06:59:57.180Z,99957.48
2019-03-18T07:02:30.513Z,99953.67
2019-03-18T07:05:04.709Z,99957.13
2019-03-18T07:07:38.115Z,99962.72
2019-03-18T07:10:13.437Z,99971.75
2019-03-18T07:12:46.760Z,99967.91
2019-03-18T07:15:20.156Z,99971.64
2019-03-18T07:17:53.497Z,99983.47
2019-03-18T07:20:26.825Z,99981.25
2019-03-18T07:23:00.150Z,99990.36
2019-03-18T07:25:33.466Z,99980.67
2019-03-18T07:28:06.877Z,99984.31
2019-03-18T07:30:40.230Z,99987.63
2019-03-18T07:33:13.658Z,99984.73
2019-03-18T07:35:47.109Z,99989.39
2019-03-18T07:38:20.466Z,100001.17
2019-03-18T07:40:53.791Z,99993.58
2019-03-18T07:43:27.229Z,100001.75
2019-03-18T07:46:00.550Z,99995.63
2019-03-18T07:48:33.900Z,100013.80
2019-03-18T07:51:07.224Z,100008.86
2019-03-18T07:53:40.569Z,100017.95
2019-03-18T07:56:13.890Z,100009.91
2019-03-18T07:58:47.393Z,100013.61
2019-03-18T08:01:20.773Z,100036.22
2019-03-18T08:03:54.121Z,100049.12
2019-03-18T08:06:27.463Z,100043.91
2019-03-18T08:09:00.843Z,100045.25
2019-03-18T08:11:34.171Z,100046.02
2019-03-18T08:14:07.553Z,100055.14
2019-03-18T08:16:40.881Z,100052.39
2019-03-18T08:19:14.252Z,100049.84
2019-03-18T08:21:47.582Z,100044.79
2019-03-18T08:24:20.960Z,100041.12
2019-03-18T08:26:54.323Z,100051.23
2019-03-18T08:29:27.680Z,100050.77
2019-03-18T08:32:00.997Z,100062.39
2019-03-18T08:34:34.516Z,100059.71
2019-03-18T08:37:07.836Z,100063.50
2019-03-18T08:39:41.200Z,100063.38
2019-03-18T08:42:14.603Z,100065.16
2019-03-18T08:44:48.020Z,100064.72
2019-03-18T08:47:21.433Z,100063.94
2019-03-18T08:49:54.802Z,100067.35
2019-03-18T08:52:28.211Z,100071.78
2019-03-18T08:55:01.579Z,100076.55
2019-03-18T08:57:34.897Z,100081.84
2019-03-18T09:00:11.407Z,100077.31
2019-03-18T09:02:44.904Z,100085.39
2019-03-18T09:05:18.233Z,100094.72
2019-03-18T09:07:51.596Z,100099.70
2019-03-18T09:10:24.992Z,100090.53
2019-03-18T09:12:58.385Z,100100.86
2019-03-18T09:15:31.728Z,100117.80
2019-03-18T09:18:05.071Z,100107.58
2019-03-18T09:20:38.445Z,100109.32
2019-03-18T09:23:11.820Z,100116.13
2019-03-18T09:25:45.137Z,100129.57
2019-03-18T09:28:18.559Z,100135.45
2019-03-18T09:30:51.921Z,100142.28
2019-03-18T09:33:25.286Z,100132.23
2019-03-18T09:35:58.678Z,100135.73
2019-03-18T09:38:32.098Z,100141.16
2019-03-18T09:41:05.443Z,100139.67
2019-03-18T09:43:38.806Z,100147.16
2019-03-18T09:46:12.270Z,100139.20
2019-03-18T09:48:45.686Z,100155.69
2019-03-18T09:51:19.022Z,100156.95
2019-03-18T09:53:52.448Z,100155.28
2019-03-18T09:56:25.860Z,100179.46
2019-03-18T09:58:59.207Z,100178.18
2019-03-18T10:01:32.557Z,100187.62
2019-03-18T10:04:05.893Z,100186.95
2019-03-18T10:06:39.302Z,100192.74
2019-03-18T10:09:12.650Z,100178.33
2019-03-18T10:11:46.164Z,100192.35
2019-03-18T10:14:19.875Z,100196.16
2019-03-18T10:16:53.284Z,100200.96
2019-03-18T10:19:33.363Z,100241.91
2019-03-18T10:22:01.754Z,100244.05
2019-03-18T10:24:35.100Z,100241.83
2019-03-18T10:27:08.439Z,100240.45
2019-03-18T10:29:41.800Z,100243.27
2019-03-18T10:32:15.130Z,100241.29
2019-03-18T10:34:48.519Z,100240.77
2019-03-18T10:37:22.122Z,100231.39
2019-03-18T10:39:55.479Z,100235.60
2019-03-18T10:42:28.791Z,100239.42
2019-03-18T10:45:02.144Z,100242.25
2019-03-18T10:47:35.474Z,100239.63
2019-03-18T10:50:11.663Z,100241.13
2019-03-18T10:52:45.001Z,100243.80
2019-03-18T10:55:18.353Z,100239.63
2019-03-18T10:57:51.748Z,100243.59
2019-03-18T11:00:25.127Z,100247.56
2019-03-18T11:02:58.447Z,100252.95
2019-03-18T11:05:31.864Z,100256.80
2019-03-18T11:08:05.346Z,100266.29
2019-03-18T11:10:38.698Z,100280.34
2019-03-18T11:13:12.093Z,100284.67
2019-03-18T11:15:45.456Z,100301.27
2019-03-18T11:18:18.790Z,100318.81
2019-03-18T11:20:52.157Z,100341.05
2019-03-18T11:23:25.474Z,100364.84
2019-03-18T11:25:58.898Z,100359.13
2019-03-18T11:28:32.509Z,100324.70
2019-03-18T11:31:05.923Z,100318.11
2019-03-18T11:33:39.234Z,100311.81
2019-03-18T11:36:12.613Z,100316.44
2019-03-18T11:38:45.944Z,100271.73
2019-03-18T11:41:19.393Z,100276.28
2019-03-18T11:43:52.784Z,100275.81
2019-03-18T11:46:26.147Z,100286.89
2019-03-18T11:48:59.531Z,100277.77
2019-03-18T11:51:33.113Z,100273.09
2019-03-18T11:54:06.579Z,100275.12
2019-03-18T11:56:39.993Z,100271.66
2019-03-18T11:59:13.317Z,100273.50
2019-03-18T12:01:46.733Z,100262.28
2019-03-18T12:04:20.155Z,100266.19
2019-03-18T12:06:53.577Z,100262.68
2019-03-18T12:09:26.903Z,100288.80
2019-03-18T12:12:00.334Z,100331.84
2019-03-18T12:14:33.864Z,100316.70
2019-03-18T12:17:07.213Z,100291.39
2019-03-18T12:19:40.550Z,100298.20
2019-03-18T12:22:13.932Z,100310.47
2019-03-18T12:24:47.260Z,100300.63
2019-03-18T12:27:20.708Z,100301.20
2019-03-18T12:29:53.993Z,100295.20
2019-03-18T12:32:27.344Z,100295.92
2019-03-18T12:35:00.773Z,100294.11
2019-03-18T12:37:34.209Z,100295.80
2019-03-18T12:40:13.710Z,100291.80
2019-03-18T12:42:47.078Z,100284.80
2019-03-18T12:45:21.387Z,100294.37
2019-03-18T12:47:54.736Z,100290.80
2019-03-18T12:50:49.324Z,100277.13
2019-03-18T12:53:03.453Z,100296.12
2019-03-18T12:55:36.850Z,100290.71
2019-03-18T12:58:10.195Z,100287.02
2019-03-18T13:00:43.590Z,100284.09
2019-03-18T13:03:17.014Z,100281.36
2019-03-18T13:05:50.384Z,100288.58
2019-03-18T13:08:23.801Z,100291.95
2019-03-18T13:10:57.146Z,100298.73
2019-03-18T13:13:30.517Z,100300.84
2019-03-18T13:16:03.832Z,100302.90
2019-03-18T13:18:37.259Z,100313.30
2019-03-18T13:21:10.668Z,100345.56
2019-03-18T13:23:44.020Z,100340.00
2019-03-18T13:26:17.425Z,100325.47
2019-03-18T13:28:50.843Z,100325.39
2019-03-18T13:31:24.169Z,100320.27
2019-03-18T13:33:57.547Z,100323.03
2019-03-18T13:36:30.889Z,100319.50
2019-03-18T13:39:07.421Z,100318.98
2019-03-18T13:41:40.789Z,100325.06
2019-03-18T13:44:14.145Z,100325.70
2019-03-18T13:46:47.522Z,100337.05
2019-03-18T13:49:20.878Z,100332.75
2019-03-18T13:51:54.327Z,100337.50
2019-03-18T13:54:27.694Z,100333.20
2019-03-18T13:57:01.067Z,100334.18
2019-03-18T13:59:34.396Z,100346.89
2019-03-18T14:02:07.885Z,100348.84
2019-03-18T14:04:41.234Z,100360.50
2019-03-18T14:07:14.575Z,100383.13
2019-03-18T14:09:47.918Z,100439.11
2019-03-18T14:12:21.252Z,100420.20
2019-03-18T14:14:54.580Z,100412.86
2019-03-18T14:17:27.926Z,100429.46
2019-03-18T14:20:01.394Z,100420.34
2019-03-18T14:22:34.777Z,100420.25
2019-03-18T14:25:09.557Z,100424.50
2019-03-18T14:27:43.002Z,100425.00
2019-03-18T14:30:17.657Z,100428.38
2019-03-18T14:32:51.166Z,100420.63
2019-03-18T14:35:24.522Z,100419.19
2019-03-18T14:37:57.861Z,100422.39
2019-03-18T14:40:31.185Z,100421.69
2019-03-18T14:43:04.565Z,100426.29
2019-03-18T14:45:37.879Z,100416.37
2019-03-18T14:48:11.237Z,100427.55
2019-03-18T14:50:44.637Z,100429.15
2019-03-18T14:53:18.041Z,100445.62
2019-03-18T14:55:51.357Z,100446.05
2019-03-18T14:58:24.809Z,100444.39
2019-03-18T15:00:58.136Z,100447.05
2019-03-18T15:03:31.636Z,100457.85
2019-03-18T15:06:04.997Z,100455.59
2019-03-18T15:08:38.434Z,100463.20
2019-03-18T15:11:11.754Z,100462.16
2019-03-18T15:13:45.099Z,100465.58
2019-03-18T15:16:18.416Z,100467.30
2019-03-18T15:18:51.801Z,100468.52
2019-03-18T15:21:25.136Z,100459.41
2019-03-18T15:23:58.498Z,100478.13
2019-03-18T15:26:31.821Z,100487.39
2019-03-18T15:29:05.277Z,100482.45
2019-03-18T15:31:38.656Z,100487.45
2019-03-18T15:34:12.120Z,100500.56
2019-03-18T15:36:45.470Z,100497.30
2019-03-18T15:39:18.847Z,100502.45
2019-03-18T15:41:52.204Z,100516.45
2019-03-18T15:44:25.578Z,100516.45
2019-03-18T15:46:58.985Z,100530.75
2019-03-18T15:49:32.347Z,100529.19
2019-03-18T15:52:10.867Z,100534.59
2019-03-18T15:54:53.115Z,100551.63
2019-03-18T15:57:15.928Z,100557.11
2019-03-18T15:59:49.400Z,100588.41
2019-03-18T16:02:22.917Z,100588.40
2019-03-18T16:04:56.391Z,100589.73
2019-03-18T16:07:29.844Z,100588.23
2019-03-18T16:10:03.964Z,100593.09
2019-03-18T16:12:37.297Z,100595.71
2019-03-18T16:15:13.030Z,100598.45
2019-03-18T16:17:46.497Z,100604.35
2019-03-18T16:20:25.015Z,100614.52
2019-03-18T16:22:58.379Z,100605.55
2019-03-18T16:25:31.803Z,100620.86
2019-03-18T16:28:05.176Z,100629.87
2019-03-18T16:30:38.644Z,100624.34
2019-03-18T16:33:11.964Z,100622.48
2019-03-18T16:35:45.313Z,100626.05
2019-03-18T16:38:18.671Z,100633.63
2019-03-18T16:40:52.024Z,100633.56
2019-03-18T16:43:25.447Z,100637.94
2019-03-18T16:45:58.755Z,100637.37
2019-03-18T16:48:32.353Z,100641.13
2019-03-18T16:51:05.672Z,100649.89
2019-03-18T16:53:39.014Z,100659.57
2019-03-18T16:56:12.435Z,100654.98
2019-03-18T16:58:45.776Z,100654.67
2019-03-18T17:01:19.097Z,100659.95
2019-03-18T17:03:52.439Z,100678.26
2019-03-18T17:06:25.760Z,100682.27
2019-03-18T17:08:59.131Z,100681.87
2019-03-18T17:11:32.512Z,100687.98
2019-03-18T17:14:05.918Z,100680.41
2019-03-18T17:16:39.243Z,100691.33
2019-03-18T17:19:12.795Z,100696.83
2019-03-18T17:21:46.291Z,100705.02
2019-03-18T17:24:19.655Z,100732.14
2019-03-18T17:26:52.999Z,100741.53
2019-03-18T17:29:26.452Z,100734.89
2019-03-18T17:31:59.902Z,100729.33
2019-03-18T17:34:33.338Z,100734.92
2019-03-18T17:37:06.772Z,100731.61
2019-03-18T17:39:40.132Z,100736.70
2019-03-18T17:42:13.479Z,100737.92
2019-03-18T17:44:46.864Z,100740.41
2019-03-18T17:47:20.187Z,100750.62
2019-03-18T17:49:53.568Z,100747.67
2019-03-18T17:52:26.889Z,100753.20
2019-03-18T17:55:00.418Z,100755.36
2019-03-18T17:57:33.738Z,100765.98
2019-03-18T18:00:14.041Z,100764.39
2019-03-18T18:02:47.364Z,100769.09
2019-03-18T18:05:20.776Z,100775.48
2019-03-18T18:07:54.129Z,100779.76
2019-03-18T18:10:27.510Z,100791.19
2019-03-18T18:13:00.855Z,100792.50
2019-03-18T18:15:34.240Z,100797.23
2019-03-18T18:18:07.598Z,100800.69
2019-03-18T18:20:40.957Z,100806.14
2019-03-18T18:23:15.135Z,100818.04
2019-03-18T18:25:48.775Z,100816.41
2019-03-18T18:28:22.101Z,100826.97
2019-03-18T18:30:55.456Z,100829.06
2019-03-18T18:33:28.789Z,100838.34
2019-03-18T18:36:02.245Z,100844.27
2019-03-18T18:38:35.564Z,100856.14
2019-03-18T18:41:08.942Z,100874.34
2019-03-18T18:43:42.271Z,100871.34
2019-03-18T18:46:15.779Z,100873.84
2019-03-18T18:48:49.224Z,100869.64
2019-03-18T18:51:22.600Z,100879.83
2019-03-18T18:53:56.100Z,100876.89
2019-03-18T18:56:29.455Z,100878.58
2019-03-18T18:59:02.855Z,100885.80
2019-03-18T19:01:36.360Z,100890.08
2019-03-18T19:04:09.748Z,100885.07
2019-03-18T19:06:43.311Z,100895.70
2019-03-18T19:09:16.642Z,100900.36
2019-03-18T19:11:49.996Z,100899.11
2019-03-18T19:14:23.528Z,100893.61
2019-03-18T19:16:57.017Z,100897.02
2019-03-18T19:19:32.247Z,100896.18
2019-03-18T19:22:05.476Z,100901.28
2019-03-18T19:27:12.494Z,100905.11
2019-03-18T19:29:45.818Z,100901.75
2019-03-18T19:32:19.155Z,100903.05
2019-03-18T19:34:52.491Z,100905.59
2019-03-18T19:37:25.840Z,100908.58
2019-03-18T19:39:59.181Z,100909.00
2019-03-18T19:42:32.828Z,100915.37
2019-03-18T19:45:09.201Z,100915.39
2019-03-18T19:47:42.627Z,100916.64
2019-03-18T19:50:24.352Z,100920.91
2019-03-18T19:52:57.852Z,100923.44
2019-03-18T20:01:25.294Z,100918.79
2019-03-18T20:03:58.877Z,100927.66
2019-03-18T20:06:32.277Z,100927.66
2019-03-18T20:09:07.224Z,100932.31
2019-03-18T20:11:41.169Z,100932.31
2019-03-18T20:14:14.524Z,100941.20
2019-03-18T20:16:47.950Z,100948.41
2019-03-18T20:19:21.379Z,100947.98
2019-03-18T20:21:54.874Z,100964.48
2019-03-18T20:24:28.442Z,100972.08
2019-03-18T20:27:01.814Z,100972.08
2019-03-18T20:29:35.238Z,100969.58
2019-03-18T20:32:08.665Z,100975.48
2019-03-18T20:34:42.416Z,100966.58
2019-03-18T20:37:18.738Z,100980.15
2019-03-18T20:39:52.120Z,100991.95
2019-03-18T20:42:25.594Z,100991.95
2019-03-18T20:44:59.020Z,100995.31
2019-03-18T20:47:32.460Z,101002.07
2019-03-18T20:50:10.445Z,100998.70
2019-03-18T20:52:44.069Z,101001.67
2019-03-18T20:55:17.800Z,101010.61
2019-03-18T20:57:51.233Z,101015.70
2019-03-18T21:00:25.397Z,101016.56
2019-03-18T21:02:58.784Z,101017.81
2019-03-18T21:05:32.241Z,101023.33
2019-03-18T21:08:05.668Z,101036.03
2019-03-18T21:10:39.502Z,101036.87
2019-03-18T21:13:12.983Z,101034.33
2019-03-18T21:15:46.423Z,101030.96
2019-03-18T21:18:19.895Z,101039.02
2019-03-18T21:20:53.284Z,101039.02
2019-03-18T21:23:26.772Z,101048.77
2019-03-18T21:26:00.088Z,101036.48
2019-03-18T21:28:41.092Z,101053.00
2019-03-18T21:31:08.780Z,101063.17
2019-03-18T21:33:42.195Z,101063.17
2019-03-18T21:36:28.192Z,101053.42
2019-03-18T21:38:50.904Z,101067.83
2019-03-18T21:41:24.255Z,101073.31
2019-03-18T21:43:57.774Z,101069.50
2019-03-18T21:46:31.169Z,101079.23
2019-03-18T21:49:05.149Z,101078.38
2019-03-18T21:51:38.987Z,101077.08
2019-03-18T21:54:13.129Z,101075.80
2019-03-18T21:56:46.802Z,101078.75
2019-03-18T21:59:20.362Z,101082.53
2019-03-18T22:01:53.794Z,101080.42
2019-03-18T22:04:27.212Z,101083.33
2019-03-18T22:07:00.560Z,101081.67
2019-03-18T22:09:34.153Z,101082.89
2019-03-18T22:12:07.909Z,101085.47
2019-03-18T22:14:41.418Z,101080.34
2019-03-18T22:17:15.107Z,101085.48
2019-03-18T22:19:48.966Z,101084.61
2019-03-18T22:22:22.448Z,101088.40
2019-03-18T22:24:57.927Z,101096.38
2019-03-18T22:27:31.580Z,101084.09
2019-03-18T22:30:10.944Z,101092.95
2019-03-18T22:32:44.741Z,101103.11
2019-03-18T22:35:18.260Z,101096.80
2019-03-18T22:37:51.683Z,101097.22
2019-03-18T22:40:25.191Z,101090.87
2019-03-18T22:42:58.712Z,101096.78
2019-03-18T22:45:32.185Z,101103.09
2019-03-18T22:48:05.734Z,101109.00
2019-03-18T22:50:39.134Z,101105.23
2019-03-18T22:53:12.625Z,101102.67
2019-03-18T22:55:46.020Z,101108.67
2019-03-18T22:58:19.602Z,101112.38
2019-03-18T23:01:12.782Z,101123.45
2019-03-18T23:03:46.514Z,101124.27
2019-03-18T23:06:19.903Z,101130.59
2019-03-18T23:08:53.257Z,101132.70
2019-03-18T23:11:26.604Z,101136.54
2019-03-18T23:14:00.452Z,101131.87
2019-03-18T23:16:33.800Z,101134.87
2019-03-18T23:19:07.274Z,101142.88
2019-03-18T23:21:40.703Z,101128.91
2019-03-18T23:24:14.088Z,101141.21
2019-03-18T23:26:47.592Z,101144.88
2019-03-18T23:29:21.109Z,101151.67
2019-03-18T23:31:54.439Z,101142.83
2019-03-18T23:34:27.926Z,101145.81
2019-03-18T23:37:01.330Z,101150.06
2019-03-18T23:39:34.719Z,101151.73
2019-03-18T23:42:08.021Z,101158.91
2019-03-18T23:44:41.371Z,101165.66
2019-03-18T23:47:14.825Z,101161.40
2019-03-18T23:49:48.330Z,101172.00
2019-03-18T23:52:21.788Z,101172.81
2019-03-18T23:54:55.246Z,101177.87
2019-03-18T23:57:28.606Z,101179.55
